sensor_id;sensor_type;location;lat;lon;timestamp;temperature;humidity
74224;SHT31;62585;49.706;18.216;2023-05-28T00:02:00;9.15;84.49
74224;SHT31;62585;49.706;18.216;2023-05-28T00:04:25;9.11;84.62
74224;SHT31;62585;49.706;18.216;2023-05-28T00:06:51;9.01;84.62
74224;SHT31;62585;49.706;18.216;2023-05-28T00:09:19;9.05;84.82
74224;SHT31;62585;49.706;18.216;2023-05-28T00:11:45;9.08;84.58
74224;SHT31;62585;49.706;18.216;2023-05-28T00:14:11;9.02;85.15
74224;SHT31;62585;49.706;18.216;2023-05-28T00:16:37;9.09;84.75
74224;SHT31;62585;49.706;18.216;2023-05-28T00:19:03;9.27;84.14
74224;SHT31;62585;49.706;18.216;2023-05-28T00:21:30;9.39;83.66
74224;SHT31;62585;49.706;18.216;2023-05-28T00:23:58;9.30;83.74
74224;SHT31;62585;49.706;18.216;2023-05-28T00:26:24;9.14;84.42
74224;SHT31;62585;49.706;18.216;2023-05-28T00:28:51;9.15;84.20
74224;SHT31;62585;49.706;18.216;2023-05-28T00:31:18;9.19;83.90
74224;SHT31;62585;49.706;18.216;2023-05-28T00:33:43;9.15;84.10
74224;SHT31;62585;49.706;18.216;2023-05-28T00:36:10;9.11;84.51
74224;SHT31;62585;49.706;18.216;2023-05-28T00:38:37;9.08;84.66
74224;SHT31;62585;49.706;18.216;2023-05-28T00:41:03;9.15;84.34
74224;SHT31;62585;49.706;18.216;2023-05-28T00:43:28;9.18;84.29
74224;SHT31;62585;49.706;18.216;2023-05-28T00:45:57;9.01;84.76
74224;SHT31;62585;49.706;18.216;2023-05-28T00:48:24;8.92;85.52
74224;SHT31;62585;49.706;18.216;2023-05-28T00:50:51;8.97;85.50
74224;SHT31;62585;49.706;18.216;2023-05-28T00:53:17;8.92;85.66
74224;SHT31;62585;49.706;18.216;2023-05-28T00:55:44;8.93;85.85
74224;SHT31;62585;49.706;18.216;2023-05-28T00:58:10;8.95;85.72
74224;SHT31;62585;49.706;18.216;2023-05-28T01:00:36;9.07;85.06
74224;SHT31;62585;49.706;18.216;2023-05-28T01:03:05;9.02;84.75
74224;SHT31;62585;49.706;18.216;2023-05-28T01:05:31;8.92;84.78
74224;SHT31;62585;49.706;18.216;2023-05-28T01:07:59;8.97;84.36
74224;SHT31;62585;49.706;18.216;2023-05-28T01:10:27;8.95;84.32
74224;SHT31;62585;49.706;18.216;2023-05-28T01:12:53;8.89;84.62
74224;SHT31;62585;49.706;18.216;2023-05-28T01:15:20;8.88;84.11
74224;SHT31;62585;49.706;18.216;2023-05-28T01:17:45;8.82;84.77
74224;SHT31;62585;49.706;18.216;2023-05-28T01:20:13;8.72;85.24
74224;SHT31;62585;49.706;18.216;2023-05-28T01:22:49;8.68;85.98
74224;SHT31;62585;49.706;18.216;2023-05-28T01:25:18;8.68;86.41
74224;SHT31;62585;49.706;18.216;2023-05-28T01:27:43;8.56;85.78
74224;SHT31;62585;49.706;18.216;2023-05-28T01:30:10;8.36;86.41
74224;SHT31;62585;49.706;18.216;2023-05-28T01:32:38;8.33;86.88
74224;SHT31;62585;49.706;18.216;2023-05-28T01:35:04;8.25;87.06
74224;SHT31;62585;49.706;18.216;2023-05-28T01:37:31;8.14;86.94
74224;SHT31;62585;49.706;18.216;2023-05-28T01:40:00;8.20;87.14
74224;SHT31;62585;49.706;18.216;2023-05-28T01:42:29;8.32;86.35
74224;SHT31;62585;49.706;18.216;2023-05-28T01:44:56;8.44;85.90
74224;SHT31;62585;49.706;18.216;2023-05-28T01:47:23;8.39;85.70
74224;SHT31;62585;49.706;18.216;2023-05-28T01:49:49;8.43;85.31
74224;SHT31;62585;49.706;18.216;2023-05-28T01:52:15;8.40;85.53
74224;SHT31;62585;49.706;18.216;2023-05-28T01:54:41;8.22;85.62
74224;SHT31;62585;49.706;18.216;2023-05-28T01:57:07;8.12;86.62
74224;SHT31;62585;49.706;18.216;2023-05-28T01:59:33;8.13;86.90
74224;SHT31;62585;49.706;18.216;2023-05-28T02:01:59;8.19;86.91
74224;SHT31;62585;49.706;18.216;2023-05-28T02:04:25;8.16;86.80
74224;SHT31;62585;49.706;18.216;2023-05-28T02:06:50;8.09;87.04
74224;SHT31;62585;49.706;18.216;2023-05-28T02:09:16;7.93;87.54
74224;SHT31;62585;49.706;18.216;2023-05-28T02:11:42;7.85;87.57
74224;SHT31;62585;49.706;18.216;2023-05-28T02:14:08;7.81;87.70
74224;SHT31;62585;49.706;18.216;2023-05-28T02:16:45;7.67;87.96
74224;SHT31;62585;49.706;18.216;2023-05-28T02:19:14;7.51;88.35
74224;SHT31;62585;49.706;18.216;2023-05-28T02:21:40;7.38;88.61
74224;SHT31;62585;49.706;18.216;2023-05-28T02:24:06;7.31;89.01
74224;SHT31;62585;49.706;18.216;2023-05-28T02:26:32;7.31;88.43
74224;SHT31;62585;49.706;18.216;2023-05-28T02:28:58;7.33;89.11
74224;SHT31;62585;49.706;18.216;2023-05-28T02:31:24;7.30;88.66
74224;SHT31;62585;49.706;18.216;2023-05-28T02:33:49;7.26;89.61
74224;SHT31;62585;49.706;18.216;2023-05-28T02:36:15;7.42;89.73
74224;SHT31;62585;49.706;18.216;2023-05-28T02:38:42;7.44;89.38
74224;SHT31;62585;49.706;18.216;2023-05-28T02:41:08;7.42;89.61
74224;SHT31;62585;49.706;18.216;2023-05-28T02:43:34;7.38;89.45
74224;SHT31;62585;49.706;18.216;2023-05-28T02:46:00;7.42;89.17
74224;SHT31;62585;49.706;18.216;2023-05-28T02:48:26;7.43;88.98
74224;SHT31;62585;49.706;18.216;2023-05-28T02:50:52;7.46;88.87
74224;SHT31;62585;49.706;18.216;2023-05-28T02:53:22;7.42;89.19
74224;SHT31;62585;49.706;18.216;2023-05-28T02:55:48;7.42;88.98
74224;SHT31;62585;49.706;18.216;2023-05-28T02:58:14;7.47;89.29
74224;SHT31;62585;49.706;18.216;2023-05-28T03:00:41;7.46;89.26
74224;SHT31;62585;49.706;18.216;2023-05-28T03:03:07;7.46;89.23
74224;SHT31;62585;49.706;18.216;2023-05-28T03:05:34;7.50;89.25
74224;SHT31;62585;49.706;18.216;2023-05-28T03:08:01;7.44;89.02
74224;SHT31;62585;49.706;18.216;2023-05-28T03:10:26;7.54;89.99
74224;SHT31;62585;49.706;18.216;2023-05-28T03:12:52;7.47;90.03
74224;SHT31;62585;49.706;18.216;2023-05-28T03:15:18;7.43;90.35
74224;SHT31;62585;49.706;18.216;2023-05-28T03:17:44;7.47;90.34
74224;SHT31;62585;49.706;18.216;2023-05-28T03:20:10;7.55;89.68
74224;SHT31;62585;49.706;18.216;2023-05-28T03:22:37;7.57;89.33
74224;SHT31;62585;49.706;18.216;2023-05-28T03:25:04;7.47;89.64
74224;SHT31;62585;49.706;18.216;2023-05-28T03:27:32;7.50;89.38
74224;SHT31;62585;49.706;18.216;2023-05-28T03:29:58;7.38;89.54
74224;SHT31;62585;49.706;18.216;2023-05-28T03:32:23;7.38;89.65
74224;SHT31;62585;49.706;18.216;2023-05-28T03:34:49;7.40;89.21
74224;SHT31;62585;49.706;18.216;2023-05-28T03:37:15;7.40;89.36
74224;SHT31;62585;49.706;18.216;2023-05-28T03:39:43;7.24;89.55
74224;SHT31;62585;49.706;18.216;2023-05-28T03:42:09;7.33;89.41
74224;SHT31;62585;49.706;18.216;2023-05-28T03:44:34;7.24;89.23
74224;SHT31;62585;49.706;18.216;2023-05-28T03:47:00;7.17;89.94
74224;SHT31;62585;49.706;18.216;2023-05-28T03:49:26;7.05;89.82
74224;SHT31;62585;49.706;18.216;2023-05-28T03:51:52;7.16;89.80
74224;SHT31;62585;49.706;18.216;2023-05-28T03:54:18;7.05;90.41
74224;SHT31;62585;49.706;18.216;2023-05-28T03:56:44;7.19;90.65
74224;SHT31;62585;49.706;18.216;2023-05-28T03:59:10;7.46;89.68
74224;SHT31;62585;49.706;18.216;2023-05-28T04:01:35;7.50;89.55
74224;SHT31;62585;49.706;18.216;2023-05-28T04:04:02;7.51;89.66
74224;SHT31;62585;49.706;18.216;2023-05-28T04:06:29;7.50;89.99
74224;SHT31;62585;49.706;18.216;2023-05-28T04:08:57;7.71;89.58
74224;SHT31;62585;49.706;18.216;2023-05-28T04:11:22;7.68;89.17
74224;SHT31;62585;49.706;18.216;2023-05-28T04:13:53;7.47;89.83
74224;SHT31;62585;49.706;18.216;2023-05-28T04:16:20;7.48;89.96
74224;SHT31;62585;49.706;18.216;2023-05-28T04:18:51;7.67;89.81
74224;SHT31;62585;49.706;18.216;2023-05-28T04:21:18;7.72;89.93
74224;SHT31;62585;49.706;18.216;2023-05-28T04:23:43;7.81;89.58
74224;SHT31;62585;49.706;18.216;2023-05-28T04:26:10;7.95;89.25
74224;SHT31;62585;49.706;18.216;2023-05-28T04:28:35;8.01;88.87
74224;SHT31;62585;49.706;18.216;2023-05-28T04:31:03;8.02;88.55
74224;SHT31;62585;49.706;18.216;2023-05-28T04:33:29;8.07;88.27
74224;SHT31;62585;49.706;18.216;2023-05-28T04:35:55;8.07;88.51
74224;SHT31;62585;49.706;18.216;2023-05-28T04:38:21;8.16;88.39
74224;SHT31;62585;49.706;18.216;2023-05-28T04:40:47;8.14;87.26
74224;SHT31;62585;49.706;18.216;2023-05-28T04:43:15;8.23;87.35
74224;SHT31;62585;49.706;18.216;2023-05-28T04:45:44;8.37;87.32
74224;SHT31;62585;49.706;18.216;2023-05-28T04:48:09;8.56;87.12
74224;SHT31;62585;49.706;18.216;2023-05-28T04:50:38;8.67;87.13
74224;SHT31;62585;49.706;18.216;2023-05-28T04:53:05;8.82;87.24
74224;SHT31;62585;49.706;18.216;2023-05-28T04:55:31;8.92;87.13
74224;SHT31;62585;49.706;18.216;2023-05-28T04:57:57;9.07;86.81
74224;SHT31;62585;49.706;18.216;2023-05-28T05:00:23;9.16;86.51
74224;SHT31;62585;49.706;18.216;2023-05-28T05:02:49;9.14;86.40
74224;SHT31;62585;49.706;18.216;2023-05-28T05:05:16;9.01;86.44
74224;SHT31;62585;49.706;18.216;2023-05-28T05:07:42;9.19;87.08
74224;SHT31;62585;49.706;18.216;2023-05-28T05:10:09;9.43;86.33
74224;SHT31;62585;49.706;18.216;2023-05-28T05:12:35;9.58;86.40
74224;SHT31;62585;49.706;18.216;2023-05-28T05:15:02;9.83;86.49
74224;SHT31;62585;49.706;18.216;2023-05-28T05:17:28;9.93;85.63
74224;SHT31;62585;49.706;18.216;2023-05-28T05:19:54;9.95;86.02
74224;SHT31;62585;49.706;18.216;2023-05-28T05:22:20;10.19;86.36
74224;SHT31;62585;49.706;18.216;2023-05-28T05:24:46;10.45;86.53
74224;SHT31;62585;49.706;18.216;2023-05-28T05:27:13;10.61;85.48
74224;SHT31;62585;49.706;18.216;2023-05-28T05:29:39;10.91;85.44
74224;SHT31;62585;49.706;18.216;2023-05-28T05:32:05;11.10;85.05
74224;SHT31;62585;49.706;18.216;2023-05-28T05:34:32;11.31;84.45
74224;SHT31;62585;49.706;18.216;2023-05-28T05:36:58;11.46;84.05
74224;SHT31;62585;49.706;18.216;2023-05-28T05:39:27;11.62;83.21
74224;SHT31;62585;49.706;18.216;2023-05-28T05:41:53;11.54;83.44
74224;SHT31;62585;49.706;18.216;2023-05-28T05:44:19;11.69;83.61
74224;SHT31;62585;49.706;18.216;2023-05-28T05:46:45;11.80;82.67
74224;SHT31;62585;49.706;18.216;2023-05-28T05:49:11;11.98;82.40
74224;SHT31;62585;49.706;18.216;2023-05-28T05:51:36;12.03;82.60
74224;SHT31;62585;49.706;18.216;2023-05-28T05:54:03;12.16;82.25
74224;SHT31;62585;49.706;18.216;2023-05-28T05:56:29;12.31;81.89
74224;SHT31;62585;49.706;18.216;2023-05-28T05:58:55;12.10;79.79
74224;SHT31;62585;49.706;18.216;2023-05-28T06:01:21;12.27;81.66
74224;SHT31;62585;49.706;18.216;2023-05-28T06:03:47;12.40;81.20
74224;SHT31;62585;49.706;18.216;2023-05-28T06:06:12;12.52;80.37
74224;SHT31;62585;49.706;18.216;2023-05-28T06:08:39;12.69;80.32
74224;SHT31;62585;49.706;18.216;2023-05-28T06:11:05;12.70;79.59
74224;SHT31;62585;49.706;18.216;2023-05-28T06:13:31;12.69;79.06
74224;SHT31;62585;49.706;18.216;2023-05-28T06:15:57;12.72;76.99
74224;SHT31;62585;49.706;18.216;2023-05-28T06:18:25;12.66;79.06
74224;SHT31;62585;49.706;18.216;2023-05-28T06:20:51;12.95;78.42
74224;SHT31;62585;49.706;18.216;2023-05-28T06:23:17;13.04;78.93
74224;SHT31;62585;49.706;18.216;2023-05-28T06:25:43;13.09;77.26
74224;SHT31;62585;49.706;18.216;2023-05-28T06:28:10;13.33;78.73
74224;SHT31;62585;49.706;18.216;2023-05-28T06:30:36;13.53;77.18
74224;SHT31;62585;49.706;18.216;2023-05-28T06:33:02;13.54;75.82
74224;SHT31;62585;49.706;18.216;2023-05-28T06:35:28;13.62;75.27
74224;SHT31;62585;49.706;18.216;2023-05-28T06:37:53;13.81;75.36
74224;SHT31;62585;49.706;18.216;2023-05-28T06:40:19;13.85;74.27
74224;SHT31;62585;49.706;18.216;2023-05-28T06:42:45;14.10;75.67
74224;SHT31;62585;49.706;18.216;2023-05-28T06:45:11;14.20;73.10
74224;SHT31;62585;49.706;18.216;2023-05-28T06:47:37;14.30;74.12
74224;SHT31;62585;49.706;18.216;2023-05-28T06:50:03;14.38;74.11
74224;SHT31;62585;49.706;18.216;2023-05-28T06:52:29;14.40;72.64
74224;SHT31;62585;49.706;18.216;2023-05-28T06:54:55;14.43;73.22
74224;SHT31;62585;49.706;18.216;2023-05-28T06:57:21;14.61;72.12
74224;SHT31;62585;49.706;18.216;2023-05-28T06:59:47;14.84;72.53
74224;SHT31;62585;49.706;18.216;2023-05-28T07:02:13;14.98;71.78
74224;SHT31;62585;49.706;18.216;2023-05-28T07:04:38;15.12;71.07
74224;SHT31;62585;49.706;18.216;2023-05-28T07:07:05;15.16;69.73
74224;SHT31;62585;49.706;18.216;2023-05-28T07:09:30;15.36;70.75
74224;SHT31;62585;49.706;18.216;2023-05-28T07:11:56;15.43;70.58
74224;SHT31;62585;49.706;18.216;2023-05-28T07:14:22;15.33;67.83
74224;SHT31;62585;49.706;18.216;2023-05-28T07:16:48;15.53;69.53
74224;SHT31;62585;49.706;18.216;2023-05-28T07:19:14;15.53;68.40
74224;SHT31;62585;49.706;18.216;2023-05-28T07:21:40;15.64;67.00
74224;SHT31;62585;49.706;18.216;2023-05-28T07:24:06;15.78;67.56
74224;SHT31;62585;49.706;18.216;2023-05-28T07:26:32;15.88;69.21
74224;SHT31;62585;49.706;18.216;2023-05-28T07:28:58;16.04;69.70
74224;SHT31;62585;49.706;18.216;2023-05-28T07:31:26;16.05;66.39
74224;SHT31;62585;49.706;18.216;2023-05-28T07:33:53;16.19;67.34
74224;SHT31;62585;49.706;18.216;2023-05-28T07:36:20;16.23;65.42
74224;SHT31;62585;49.706;18.216;2023-05-28T07:38:46;16.21;66.15
74224;SHT31;62585;49.706;18.216;2023-05-28T07:41:12;16.21;65.26
74224;SHT31;62585;49.706;18.216;2023-05-28T07:43:38;16.38;66.54
74224;SHT31;62585;49.706;18.216;2023-05-28T07:46:04;16.59;66.02
74224;SHT31;62585;49.706;18.216;2023-05-28T07:48:30;16.73;65.11
74224;SHT31;62585;49.706;18.216;2023-05-28T07:50:56;16.85;63.37
74224;SHT31;62585;49.706;18.216;2023-05-28T07:53:22;17.11;64.77
74224;SHT31;62585;49.706;18.216;2023-05-28T07:55:48;17.15;61.85
74224;SHT31;62585;49.706;18.216;2023-05-28T07:58:14;17.03;63.02
74224;SHT31;62585;49.706;18.216;2023-05-28T08:00:40;16.90;63.00
74224;SHT31;62585;49.706;18.216;2023-05-28T08:03:06;17.34;63.68
74224;SHT31;62585;49.706;18.216;2023-05-28T08:05:32;17.24;62.48
74224;SHT31;62585;49.706;18.216;2023-05-28T08:07:59;17.28;59.36
74224;SHT31;62585;49.706;18.216;2023-05-28T08:10:25;17.32;61.47
74224;SHT31;62585;49.706;18.216;2023-05-28T08:12:50;17.35;59.85
74224;SHT31;62585;49.706;18.216;2023-05-28T08:15:16;17.65;59.89
74224;SHT31;62585;49.706;18.216;2023-05-28T08:17:42;17.77;61.05
74224;SHT31;62585;49.706;18.216;2023-05-28T08:20:08;17.56;62.63
74224;SHT31;62585;49.706;18.216;2023-05-28T08:22:35;17.83;60.76
74224;SHT31;62585;49.706;18.216;2023-05-28T08:25:01;18.23;60.16
74224;SHT31;62585;49.706;18.216;2023-05-28T08:27:28;18.34;61.21
74224;SHT31;62585;49.706;18.216;2023-05-28T08:29:53;18.27;58.83
74224;SHT31;62585;49.706;18.216;2023-05-28T08:32:19;18.30;57.10
74224;SHT31;62585;49.706;18.216;2023-05-28T08:34:45;18.58;60.51
74224;SHT31;62585;49.706;18.216;2023-05-28T08:37:12;18.82;61.33
74224;SHT31;62585;49.706;18.216;2023-05-28T08:39:38;18.58;57.55
74224;SHT31;62585;49.706;18.216;2023-05-28T08:42:04;18.62;57.01
74224;SHT31;62585;49.706;18.216;2023-05-28T08:44:31;18.76;56.37
74224;SHT31;62585;49.706;18.216;2023-05-28T08:46:57;18.85;56.24
74224;SHT31;62585;49.706;18.216;2023-05-28T08:49:30;18.80;56.16
74224;SHT31;62585;49.706;18.216;2023-05-28T08:51:59;19.00;56.77
74224;SHT31;62585;49.706;18.216;2023-05-28T08:54:25;18.85;55.09
74224;SHT31;62585;49.706;18.216;2023-05-28T08:56:52;18.86;55.14
74224;SHT31;62585;49.706;18.216;2023-05-28T08:59:19;19.06;57.43
74224;SHT31;62585;49.706;18.216;2023-05-28T09:01:45;18.97;53.04
74224;SHT31;62585;49.706;18.216;2023-05-28T09:04:11;18.85;56.18
74224;SHT31;62585;49.706;18.216;2023-05-28T09:06:40;19.17;54.52
74224;SHT31;62585;49.706;18.216;2023-05-28T09:09:06;19.37;56.01
74224;SHT31;62585;49.706;18.216;2023-05-28T09:11:35;19.43;56.96
74224;SHT31;62585;49.706;18.216;2023-05-28T09:14:09;19.45;54.32
74224;SHT31;62585;49.706;18.216;2023-05-28T09:16:38;19.47;52.58
74224;SHT31;62585;49.706;18.216;2023-05-28T09:19:05;19.50;52.19
74224;SHT31;62585;49.706;18.216;2023-05-28T09:21:31;19.62;53.98
74224;SHT31;62585;49.706;18.216;2023-05-28T09:23:59;19.55;55.07
74224;SHT31;62585;49.706;18.216;2023-05-28T09:26:31;19.78;53.80
74224;SHT31;62585;49.706;18.216;2023-05-28T09:28:58;19.83;51.81
74224;SHT31;62585;49.706;18.216;2023-05-28T09:31:31;19.71;54.05
74224;SHT31;62585;49.706;18.216;2023-05-28T09:33:59;19.83;54.70
74224;SHT31;62585;49.706;18.216;2023-05-28T09:36:26;20.14;54.09
74224;SHT31;62585;49.706;18.216;2023-05-28T09:38:52;20.27;52.22
74224;SHT31;62585;49.706;18.216;2023-05-28T09:41:21;20.16;53.78
74224;SHT31;62585;49.706;18.216;2023-05-28T09:44:01;20.22;52.05
74224;SHT31;62585;49.706;18.216;2023-05-28T09:46:32;20.36;53.04
74224;SHT31;62585;49.706;18.216;2023-05-28T09:48:59;20.40;48.92
74224;SHT31;62585;49.706;18.216;2023-05-28T09:51:25;20.44;51.76
74224;SHT31;62585;49.706;18.216;2023-05-28T09:54:00;20.50;50.31
74224;SHT31;62585;49.706;18.216;2023-05-28T09:56:28;20.63;51.71
74224;SHT31;62585;49.706;18.216;2023-05-28T09:58:59;20.65;52.24
74224;SHT31;62585;49.706;18.216;2023-05-28T10:01:45;20.65;53.61
74224;SHT31;62585;49.706;18.216;2023-05-28T10:04:14;20.70;49.58
74224;SHT31;62585;49.706;18.216;2023-05-28T10:06:44;20.81;53.10
74224;SHT31;62585;49.706;18.216;2023-05-28T10:09:15;20.84;47.79
74224;SHT31;62585;49.706;18.216;2023-05-28T10:11:54;20.92;46.50
74224;SHT31;62585;49.706;18.216;2023-05-28T10:14:22;21.15;48.87
74224;SHT31;62585;49.706;18.216;2023-05-28T10:16:49;21.06;51.06
74224;SHT31;62585;49.706;18.216;2023-05-28T10:19:16;21.19;49.29
74224;SHT31;62585;49.706;18.216;2023-05-28T10:21:41;21.10;44.63
74224;SHT31;62585;49.706;18.216;2023-05-28T10:24:08;21.00;49.86
74224;SHT31;62585;49.706;18.216;2023-05-28T10:26:34;20.95;47.84
74224;SHT31;62585;49.706;18.216;2023-05-28T10:29:00;21.15;48.39
74224;SHT31;62585;49.706;18.216;2023-05-28T10:31:26;21.32;47.76
74224;SHT31;62585;49.706;18.216;2023-05-28T10:33:52;21.54;48.16
74224;SHT31;62585;49.706;18.216;2023-05-28T10:36:18;21.51;49.90
74224;SHT31;62585;49.706;18.216;2023-05-28T10:41:20;21.47;46.91
74224;SHT31;62585;49.706;18.216;2023-05-28T10:43:50;21.23;47.20
74224;SHT31;62585;49.706;18.216;2023-05-28T10:46:35;21.60;47.72
74224;SHT31;62585;49.706;18.216;2023-05-28T10:49:06;21.75;45.00
74224;SHT31;62585;49.706;18.216;2023-05-28T10:52:00;21.80;47.14
74224;SHT31;62585;49.706;18.216;2023-05-28T10:57:19;21.77;48.07
74224;SHT31;62585;49.706;18.216;2023-05-28T10:59:59;21.95;48.05
74224;SHT31;62585;49.706;18.216;2023-05-28T11:02:25;21.75;48.08
74224;SHT31;62585;49.706;18.216;2023-05-28T11:04:54;21.70;46.61
74224;SHT31;62585;49.706;18.216;2023-05-28T11:07:21;21.90;46.22
74224;SHT31;62585;49.706;18.216;2023-05-28T11:09:51;21.91;44.79
74224;SHT31;62585;49.706;18.216;2023-05-28T11:12:19;21.80;45.73
74224;SHT31;62585;49.706;18.216;2023-05-28T11:14:45;21.93;45.93
74224;SHT31;62585;49.706;18.216;2023-05-28T11:17:12;22.33;46.75
74224;SHT31;62585;49.706;18.216;2023-05-28T11:19:42;22.29;46.51
74224;SHT31;62585;49.706;18.216;2023-05-28T11:22:09;22.46;47.35
74224;SHT31;62585;49.706;18.216;2023-05-28T11:27:21;22.45;47.64
74224;SHT31;62585;49.706;18.216;2023-05-28T11:29:47;22.61;46.09
74224;SHT31;62585;49.706;18.216;2023-05-28T11:32:13;22.83;45.67
74224;SHT31;62585;49.706;18.216;2023-05-28T11:34:39;22.97;44.79
74224;SHT31;62585;49.706;18.216;2023-05-28T11:37:05;23.07;43.14
74224;SHT31;62585;49.706;18.216;2023-05-28T11:39:33;22.97;43.44
74224;SHT31;62585;49.706;18.216;2023-05-28T11:42:01;22.86;39.72
74224;SHT31;62585;49.706;18.216;2023-05-28T11:44:27;22.97;43.62
74224;SHT31;62585;49.706;18.216;2023-05-28T11:46:54;22.93;45.61
74224;SHT31;62585;49.706;18.216;2023-05-28T11:49:21;22.97;43.40
74224;SHT31;62585;49.706;18.216;2023-05-28T11:51:48;22.98;44.11
74224;SHT31;62585;49.706;18.216;2023-05-28T11:54:15;23.17;42.62
74224;SHT31;62585;49.706;18.216;2023-05-28T11:56:41;23.03;43.44
74224;SHT31;62585;49.706;18.216;2023-05-28T11:59:06;23.35;43.28
74224;SHT31;62585;49.706;18.216;2023-05-28T12:01:32;23.39;42.77
74224;SHT31;62585;49.706;18.216;2023-05-28T12:04:05;23.41;42.35
74224;SHT31;62585;49.706;18.216;2023-05-28T12:06:32;23.49;45.33
74224;SHT31;62585;49.706;18.216;2023-05-28T12:09:09;23.69;43.41
74224;SHT31;62585;49.706;18.216;2023-05-28T12:12:03;23.38;42.86
74224;SHT31;62585;49.706;18.216;2023-05-28T12:14:30;23.11;43.30
74224;SHT31;62585;49.706;18.216;2023-05-28T12:17:08;23.17;45.56
74224;SHT31;62585;49.706;18.216;2023-05-28T12:19:35;23.34;41.68
74224;SHT31;62585;49.706;18.216;2023-05-28T12:22:02;23.35;41.96
74224;SHT31;62585;49.706;18.216;2023-05-28T12:24:28;23.55;42.08
74224;SHT31;62585;49.706;18.216;2023-05-28T12:26:54;23.45;44.64
74224;SHT31;62585;49.706;18.216;2023-05-28T12:29:19;23.32;42.72
74224;SHT31;62585;49.706;18.216;2023-05-28T12:31:45;23.24;43.46
74224;SHT31;62585;49.706;18.216;2023-05-28T12:34:11;23.19;42.90
74224;SHT31;62585;49.706;18.216;2023-05-28T12:36:37;23.22;42.36
74224;SHT31;62585;49.706;18.216;2023-05-28T12:39:03;23.17;41.05
74224;SHT31;62585;49.706;18.216;2023-05-28T12:41:30;23.29;42.42
74224;SHT31;62585;49.706;18.216;2023-05-28T12:43:56;23.21;40.82
74224;SHT31;62585;49.706;18.216;2023-05-28T12:46:21;23.46;41.67
74224;SHT31;62585;49.706;18.216;2023-05-28T12:48:47;23.51;43.08
74224;SHT31;62585;49.706;18.216;2023-05-28T12:51:14;23.42;44.36
74224;SHT31;62585;49.706;18.216;2023-05-28T12:53:40;23.58;44.48
74224;SHT31;62585;49.706;18.216;2023-05-28T12:56:06;23.59;42.42
74224;SHT31;62585;49.706;18.216;2023-05-28T12:58:31;23.22;42.98
74224;SHT31;62585;49.706;18.216;2023-05-28T13:00:57;23.55;40.98
74224;SHT31;62585;49.706;18.216;2023-05-28T13:03:23;23.73;41.46
74224;SHT31;62585;49.706;18.216;2023-05-28T13:05:49;24.03;42.33
74224;SHT31;62585;49.706;18.216;2023-05-28T13:08:15;24.21;40.78
74224;SHT31;62585;49.706;18.216;2023-05-28T13:10:41;24.06;41.65
74224;SHT31;62585;49.706;18.216;2023-05-28T13:13:06;23.87;39.55
74224;SHT31;62585;49.706;18.216;2023-05-28T13:15:32;23.84;39.46
74224;SHT31;62585;49.706;18.216;2023-05-28T13:17:58;23.70;42.00
74224;SHT31;62585;49.706;18.216;2023-05-28T13:20:24;23.90;41.08
74224;SHT31;62585;49.706;18.216;2023-05-28T13:22:51;23.94;40.03
74224;SHT31;62585;49.706;18.216;2023-05-28T13:25:16;23.97;40.57
74224;SHT31;62585;49.706;18.216;2023-05-28T13:27:42;24.14;39.63
74224;SHT31;62585;49.706;18.216;2023-05-28T13:30:08;24.35;41.69
74224;SHT31;62585;49.706;18.216;2023-05-28T13:32:34;24.30;40.21
74224;SHT31;62585;49.706;18.216;2023-05-28T13:35:00;24.40;37.49
74224;SHT31;62585;49.706;18.216;2023-05-28T13:37:26;24.24;40.84
74224;SHT31;62585;49.706;18.216;2023-05-28T13:39:51;23.97;40.00
74224;SHT31;62585;49.706;18.216;2023-05-28T13:42:17;24.27;41.41
74224;SHT31;62585;49.706;18.216;2023-05-28T13:44:45;24.06;39.17
74224;SHT31;62585;49.706;18.216;2023-05-28T13:47:13;24.18;40.54
74224;SHT31;62585;49.706;18.216;2023-05-28T13:49:38;23.96;38.42
74224;SHT31;62585;49.706;18.216;2023-05-28T13:52:04;23.61;39.70
74224;SHT31;62585;49.706;18.216;2023-05-28T13:54:30;24.09;36.08
74224;SHT31;62585;49.706;18.216;2023-05-28T13:56:56;24.31;39.94
74224;SHT31;62585;49.706;18.216;2023-05-28T13:59:22;24.14;38.08
74224;SHT31;62585;49.706;18.216;2023-05-28T14:01:47;24.27;38.08
74224;SHT31;62585;49.706;18.216;2023-05-28T14:04:13;24.31;38.29
74224;SHT31;62585;49.706;18.216;2023-05-28T14:06:39;24.32;38.86
74224;SHT31;62585;49.706;18.216;2023-05-28T14:09:04;24.38;40.98
74224;SHT31;62585;49.706;18.216;2023-05-28T14:11:31;23.93;37.94
74224;SHT31;62585;49.706;18.216;2023-05-28T14:13:57;23.92;38.17
74224;SHT31;62585;49.706;18.216;2023-05-28T14:16:22;23.65;38.30
74224;SHT31;62585;49.706;18.216;2023-05-28T14:18:48;23.39;39.91
74224;SHT31;62585;49.706;18.216;2023-05-28T14:21:14;23.48;41.09
74224;SHT31;62585;49.706;18.216;2023-05-28T14:23:40;23.65;39.73
74224;SHT31;62585;49.706;18.216;2023-05-28T14:26:06;23.48;39.85
74224;SHT31;62585;49.706;18.216;2023-05-28T14:28:31;23.27;41.27
74224;SHT31;62585;49.706;18.216;2023-05-28T14:30:57;23.34;40.06
74224;SHT31;62585;49.706;18.216;2023-05-28T14:33:23;23.39;40.03
74224;SHT31;62585;49.706;18.216;2023-05-28T14:35:49;23.45;41.14
74224;SHT31;62585;49.706;18.216;2023-05-28T14:38:15;23.51;40.21
74224;SHT31;62585;49.706;18.216;2023-05-28T14:40:40;23.42;40.29
74224;SHT31;62585;49.706;18.216;2023-05-28T14:43:06;23.41;41.63
74224;SHT31;62585;49.706;18.216;2023-05-28T14:45:32;23.39;41.48
74224;SHT31;62585;49.706;18.216;2023-05-28T14:47:57;23.35;41.12
74224;SHT31;62585;49.706;18.216;2023-05-28T14:50:23;23.31;42.34
74224;SHT31;62585;49.706;18.216;2023-05-28T14:52:49;23.22;40.84
74224;SHT31;62585;49.706;18.216;2023-05-28T14:55:17;23.34;42.87
74224;SHT31;62585;49.706;18.216;2023-05-28T14:57:42;23.48;42.29
74224;SHT31;62585;49.706;18.216;2023-05-28T15:00:10;23.49;41.85
74224;SHT31;62585;49.706;18.216;2023-05-28T15:02:36;23.29;43.24
74224;SHT31;62585;49.706;18.216;2023-05-28T15:05:02;23.54;41.56
74224;SHT31;62585;49.706;18.216;2023-05-28T15:07:32;23.41;42.93
74224;SHT31;62585;49.706;18.216;2023-05-28T15:09:58;23.19;41.25
74224;SHT31;62585;49.706;18.216;2023-05-28T15:12:25;22.88;40.60
74224;SHT31;62585;49.706;18.216;2023-05-28T15:14:51;22.48;41.22
74224;SHT31;62585;49.706;18.216;2023-05-28T15:17:18;22.56;42.51
74224;SHT31;62585;49.706;18.216;2023-05-28T15:19:47;22.71;42.11
74224;SHT31;62585;49.706;18.216;2023-05-28T15:22:14;22.73;41.80
74224;SHT31;62585;49.706;18.216;2023-05-28T15:24:41;22.76;41.16
74224;SHT31;62585;49.706;18.216;2023-05-28T15:27:07;22.80;43.24